Time;durP1;ratioP1;P1;durP2;ratioP2;P2;SDS_P1;SDS_P2;PMS_P1;PMS_P2;Temp;Humidity;BMP_temperature;BMP_pressure;BME280_temperature;BME280_humidity;BME280_pressure;Samples;Min_cycle;Max_cycle;Signal;HPM_P1;HPM_P2
2021/12/26 00:05:47;;;;;;;;;;;;;;;-1.73;100.00;98278.84;5010968;28;20099;-56
2021/12/26 00:08:12;;;;;;;;;;;;;;;-1.69;100.00;98270.47;5001076;28;19971;-57
2021/12/26 06:11:49;;;;;;;;;;;;;;;-2.51;100.00;98185.03;5037612;28;19982;-62
2021/12/26 08:43:24;;;;;;;;;;;;;;;0.51;100.00;98217.44;5031815;28;20286;-60
2021/12/26 09:50:12;;;;;;;;;;;;;;;0.72;100.00;98228.31;5051612;28;19983;-60
2021/12/26 09:52:41;;;;;;;;;;;;;;;0.59;100.00;98230.91;5052050;28;19917;-60
2021/12/26 09:55:07;;;;;;;;;;;;;;;0.53;100.00;98230.09;5050898;28;19967;-60
2021/12/26 09:57:32;;;;;;;;;;;;;;;0.32;100.00;98247.06;5052790;28;20010;-61
2021/12/26 09:59:58;;;;;;;;;;;;;;;0.03;100.00;98253.88;5052849;28;19921;-61
2021/12/26 10:02:23;;;;;;;;;;;;;;;0.68;100.00;98260.41;5052088;28;20350;-61
2021/12/26 10:04:49;;;;;;;;;;;;;;;1.15;100.00;98256.78;5050005;28;20278;-61
2021/12/26 10:07:25;;;;;;;;;;;;;;;1.48;100.00;98249.78;5051602;28;20012;-61
2021/12/26 10:09:51;;;;;;;;;;;;;;;0.98;100.00;98254.38;5049620;28;19913;-61
2021/12/26 10:12:17;;;;;;;;;;;;;;;0.08;100.00;98262.31;5051294;28;19943;-60
2021/12/26 10:14:46;;;;;;;;;;;;;;;0.93;100.00;98265.38;5051074;28;19917;-61
2021/12/26 10:17:13;;;;;;;;;;;;;;;1.02;100.00;98270.38;5049547;28;19916;-60
2021/12/26 10:19:42;;;;;;;;;;;;;;;0.42;100.00;98265.59;5051128;28;19982;-61
2021/12/26 10:22:08;;;;;;;;;;;;;;;0.14;100.00;98257.25;5051320;28;19916;-61
2021/12/26 10:24:34;;;;;;;;;;;;;;;0.58;100.00;98267.22;5051313;28;19923;-60
2021/12/26 10:27:01;;;;;;;;;;;;;;;0.34;100.00;98255.50;5051231;28;19917;-60
2021/12/26 10:29:28;;;;;;;;;;;;;;;0.73;100.00;98266.31;5051302;28;20023;-60
2021/12/26 10:31:55;;;;;;;;;;;;;;;0.91;100.00;98270.44;5050778;28;19916;-60
2021/12/26 10:34:40;;;;;;;;;;;;;;;1.03;100.00;98256.88;5050840;28;19927;-61
2021/12/26 10:37:07;;;;;;;;;;;;;;;1.23;100.00;98257.59;5050965;28;20411;-61
2021/12/26 10:39:34;;;;;;;;;;;;;;;1.04;100.00;98258.56;5049674;28;20062;-60
2021/12/26 10:42:01;;;;;;;;;;;;;;;1.11;100.00;98252.59;5051280;28;19920;-61
2021/12/26 10:44:38;;;;;;;;;;;;;;;1.67;100.00;98248.81;5050452;28;19917;-61
2021/12/26 10:47:05;;;;;;;;;;;;;;;0.98;100.00;98244.22;5052582;28;19921;-61
2021/12/26 10:49:32;;;;;;;;;;;;;;;0.96;100.00;98242.56;5049775;28;19917;-61
2021/12/26 10:51:58;;;;;;;;;;;;;;;1.90;100.00;98242.69;5050553;28;19999;-59
2021/12/26 10:54:26;;;;;;;;;;;;;;;0.79;100.00;98238.41;5049719;28;20669;-61
2021/12/26 10:57:03;;;;;;;;;;;;;;;1.63;100.00;98247.13;5049154;28;19917;-61
2021/12/26 10:59:28;;;;;;;;;;;;;;;1.21;100.00;98235.63;5050174;28;19946;-61
2021/12/26 11:01:56;;;;;;;;;;;;;;;1.51;100.00;98219.34;5050861;28;19925;-62
2021/12/26 11:04:23;;;;;;;;;;;;;;;1.39;100.00;98216.88;5050558;28;19921;-61
2021/12/26 11:07:02;;;;;;;;;;;;;;;1.51;100.00;98224.41;5051339;28;20407;-61
2021/12/26 11:09:28;;;;;;;;;;;;;;;1.57;100.00;98223.50;5049588;28;19948;-61
2021/12/26 11:12:00;;;;;;;;;;;;;;;1.98;100.00;98220.56;5050382;28;20294;-61
2021/12/26 11:14:25;;;;;;;;;;;;;;;1.76;100.00;98208.97;5050259;28;19947;-61
2021/12/26 11:16:51;;;;;;;;;;;;;;;1.32;100.00;98205.09;5050015;28;19920;-61
2021/12/26 11:19:16;;;;;;;;;;;;;;;2.03;100.00;98203.63;5052081;28;19917;-65
2021/12/26 11:21:42;;;;;;;;;;;;;;;1.35;100.00;98202.56;5048174;28;19924;-65
2021/12/26 11:24:08;;;;;;;;;;;;;;;1.64;100.00;98210.78;5046086;28;20406;-64
2021/12/26 11:26:33;;;;;;;;;;;;;;;2.62;100.00;98208.00;5045771;28;20499;-65
2021/12/26 11:28:58;;;;;;;;;;;;;;;3.08;100.00;98199.72;5045444;28;19932;-64
2021/12/26 11:31:25;;;;;;;;;;;;;;;2.36;100.00;98181.22;5044886;28;19928;-64
2021/12/26 11:33:55;;;;;;;;;;;;;;;2.03;100.00;98183.31;5027326;28;20588;-64
2021/12/26 11:36:21;;;;;;;;;;;;;;;1.98;100.00;98185.03;5045677;28;19917;-65
2021/12/26 11:38:47;;;;;;;;;;;;;;;2.11;100.00;98188.28;5045768;28;19919;-64
2021/12/26 11:41:31;;;;;;;;;;;;;;;2.05;100.00;98180.72;5038873;28;20315;-65
2021/12/26 11:44:00;;;;;;;;;;;;;;;1.50;100.00;98171.13;5043107;28;19920;-65
2021/12/26 11:46:25;;;;;;;;;;;;;;;2.25;100.00;98177.97;5011575;28;19990;-64
2021/12/26 11:48:59;;;;;;;;;;;;;;;2.25;100.00;98163.56;5044462;28;20392;-65
2021/12/26 11:51:34;;;;;;;;;;;;;;;2.21;100.00;98172.09;5027143;28;20035;-64
2021/12/26 11:54:00;;;;;;;;;;;;;;;2.63;100.00;98162.22;5000428;28;19916;-64
2021/12/26 11:56:38;;;;;;;;;;;;;;;2.99;100.00;98156.63;5049814;28;19916;-60
2021/12/26 11:59:22;;;;;;;;;;;;;;;2.33;100.00;98153.31;5049488;28;19917;-61
2021/12/26 12:01:48;;;;;;;;;;;;;;;2.15;100.00;98154.38;5047386;28;19927;-61
2021/12/26 12:04:17;;;;;;;;;;;;;;;2.32;100.00;98159.25;5048101;28;19917;-61
2021/12/26 12:06:43;;;;;;;;;;;;;;;2.24;100.00;98156.81;5048215;28;19931;-61
2021/12/26 12:09:27;;;;;;;;;;;;;;;2.21;100.00;98156.84;5048231;28;19913;-61
2021/12/26 12:12:04;;;;;;;;;;;;;;;2.38;100.00;98149.00;5048537;28;19921;-61
2021/12/26 12:14:50;;;;;;;;;;;;;;;2.76;100.00;98155.28;5047083;28;19917;-61
2021/12/26 12:17:19;;;;;;;;;;;;;;;3.22;100.00;98149.50;5048023;28;19917;-59
2021/12/26 12:20:05;;;;;;;;;;;;;;;2.99;100.00;98143.91;5048263;28;19923;-61
2021/12/26 12:22:30;;;;;;;;;;;;;;;3.11;100.00;98136.09;5033214;28;20519;-61
2021/12/26 12:24:56;;;;;;;;;;;;;;;2.79;100.00;98124.72;5047655;28;19925;-60
2021/12/26 12:27:23;;;;;;;;;;;;;;;2.63;100.00;98128.34;5048150;28;19982;-61
2021/12/26 12:29:50;;;;;;;;;;;;;;;2.95;100.00;98127.88;5048948;28;19917;-61
2021/12/26 12:32:21;;;;;;;;;;;;;;;3.17;100.00;98113.13;5048266;28;19927;-61
2021/12/26 12:34:54;;;;;;;;;;;;;;;3.19;100.00;98119.00;5052458;28;19921;-61
2021/12/26 12:37:25;;;;;;;;;;;;;;;2.75;100.00;98102.75;5051420;28;19916;-62
2021/12/26 12:40:12;;;;;;;;;;;;;;;2.47;100.00;98105.69;5051691;28;19924;-61
2021/12/26 12:42:37;;;;;;;;;;;;;;;2.77;100.00;98110.34;5051558;28;20330;-59
2021/12/26 12:45:03;;;;;;;;;;;;;;;2.46;100.00;98116.72;5034943;28;19931;-60
2021/12/26 12:47:29;;;;;;;;;;;;;;;2.53;100.00;98119.16;5052048;28;20270;-64
2021/12/26 12:49:55;;;;;;;;;;;;;;;2.72;100.00;98118.88;5051806;28;19921;-60
2021/12/26 12:52:39;;;;;;;;;;;;;;;2.64;100.00;98119.84;5052055;28;19925;-60
2021/12/26 12:55:12;;;;;;;;;;;;;;;2.56;100.00;98116.59;5052632;28;19927;-59
2021/12/26 12:57:42;;;;;;;;;;;;;;;2.75;100.00;98120.53;5031745;28;19930;-60
2021/12/26 13:00:23;;;;;;;;;;;;;;;3.14;100.00;98113.97;5050383;28;20289;-60
2021/12/26 13:02:49;;;;;;;;;;;;;;;2.44;100.00;98113.38;5051966;28;20381;-60
2021/12/26 13:05:22;;;;;;;;;;;;;;;2.97;100.00;98104.97;5052395;28;20055;-60
2021/12/26 13:07:47;;;;;;;;;;;;;;;3.06;100.00;98102.28;5052250;28;20445;-59
2021/12/26 13:10:12;;;;;;;;;;;;;;;3.18;100.00;98107.16;5052739;28;20046;-59
2021/12/26 13:12:38;;;;;;;;;;;;;;;3.27;100.00;98099.38;5034021;28;19917;-60
2021/12/26 13:15:05;;;;;;;;;;;;;;;3.49;100.00;98091.34;5052834;28;19956;-60
2021/12/26 13:17:34;;;;;;;;;;;;;;;3.06;100.00;98085.31;5052214;28;19919;-60
2021/12/26 13:20:02;;;;;;;;;;;;;;;2.83;100.00;98085.69;5052410;28;19920;-60
2021/12/26 13:22:48;;;;;;;;;;;;;;;3.04;100.00;98086.19;5052506;28;20038;-60
2021/12/26 13:25:23;;;;;;;;;;;;;;;3.08;100.00;98077.63;5040641;28;20392;-60
2021/12/26 13:27:48;;;;;;;;;;;;;;;3.03;100.00;98077.72;5053158;28;20696;-60
2021/12/26 13:30:14;;;;;;;;;;;;;;;2.77;100.00;98078.13;5052277;28;19999;-60
2021/12/26 13:32:39;;;;;;;;;;;;;;;2.55;100.00;98081.88;5052035;28;19982;-60
2021/12/26 13:35:06;;;;;;;;;;;;;;;2.71;100.00;98090.94;5052006;28;19917;-60
2021/12/26 13:37:31;;;;;;;;;;;;;;;2.93;100.00;98092.28;5052308;28;20366;-60
2021/12/26 13:39:58;;;;;;;;;;;;;;;2.40;100.00;98096.47;5052145;28;20019;-59
2021/12/26 13:42:23;;;;;;;;;;;;;;;3.14;100.00;98095.34;5051423;28;19921;-59
2021/12/26 13:44:49;;;;;;;;;;;;;;;2.70;100.00;98089.28;5050891;28;19978;-59
2021/12/26 13:47:14;;;;;;;;;;;;;;;3.24;100.00;98086.72;5052078;28;19927;-60
2021/12/26 13:49:39;;;;;;;;;;;;;;;3.21;100.00;98080.81;5051166;28;19924;-61
2021/12/26 13:52:05;;;;;;;;;;;;;;;3.70;100.00;98080.78;5047482;28;19917;-63
2021/12/26 13:54:37;;;;;;;;;;;;;;;3.25;100.00;98073.09;5047333;28;20424;-63
2021/12/26 13:57:04;;;;;;;;;;;;;;;2.82;100.00;98072.97;5047085;28;19927;-62
2021/12/26 13:59:31;;;;;;;;;;;;;;;2.39;100.00;98069.38;5047268;28;19924;-63
2021/12/26 14:01:57;;;;;;;;;;;;;;;2.35;100.00;98077.91;5047335;28;19926;-63
2021/12/26 14:04:23;;;;;;;;;;;;;;;2.36;100.00;98083.84;5038402;28;19924;-63
2021/12/26 14:06:48;;;;;;;;;;;;;;;2.76;100.00;98089.19;5036377;28;20374;-63
2021/12/26 14:09:14;;;;;;;;;;;;;;;2.99;100.00;98086.28;5047903;28;19917;-63
2021/12/26 14:11:39;;;;;;;;;;;;;;;3.39;100.00;98085.59;5047870;28;19920;-63
2021/12/26 14:14:07;;;;;;;;;;;;;;;3.42;100.00;98084.69;5046922;28;19917;-63
2021/12/26 14:16:33;;;;;;;;;;;;;;;3.69;100.00;98076.53;5047660;28;20378;-63
2021/12/26 14:19:05;;;;;;;;;;;;;;;3.60;100.00;98074.16;5048750;28;20027;-63
2021/12/26 14:21:31;;;;;;;;;;;;;;;3.48;100.00;98066.75;5046917;28;19929;-63
2021/12/26 14:23:56;;;;;;;;;;;;;;;2.70;100.00;98066.38;5046913;28;19937;-63
2021/12/26 14:26:24;;;;;;;;;;;;;;;3.03;100.00;98069.25;5047220;28;19932;-63
2021/12/26 14:28:58;;;;;;;;;;;;;;;3.34;100.00;98072.09;5029159;28;19921;-63
2021/12/26 14:31:37;;;;;;;;;;;;;;;3.37;100.00;98076.31;5047714;28;20417;-63
2021/12/26 14:34:07;;;;;;;;;;;;;;;2.88;100.00;98062.72;5032414;28;19917;-60
2021/12/26 14:36:45;;;;;;;;;;;;;;;3.06;100.00;98061.59;5032727;28;20567;-60
2021/12/26 14:39:11;;;;;;;;;;;;;;;3.19;100.00;98073.19;5050389;28;19963;-60
2021/12/26 14:41:41;;;;;;;;;;;;;;;3.04;100.00;98068.41;5051580;28;19920;-61
2021/12/26 14:44:13;;;;;;;;;;;;;;;2.79;100.00;98063.69;5051476;28;20086;-60
2021/12/26 14:46:39;;;;;;;;;;;;;;;2.87;100.00;98064.44;5049651;28;19944;-61
2021/12/26 14:49:11;;;;;;;;;;;;;;;3.38;100.00;98072.91;5051195;28;20389;-61
2021/12/26 14:51:37;;;;;;;;;;;;;;;3.51;100.00;98070.09;5051211;28;19917;-60
2021/12/26 14:54:04;;;;;;;;;;;;;;;3.19;100.00;98068.13;5048585;28;19981;-59
2021/12/26 14:56:50;;;;;;;;;;;;;;;3.32;100.00;98058.56;5049791;28;19948;-60
2021/12/26 14:59:25;;;;;;;;;;;;;;;3.37;100.00;98061.88;5051819;28;20011;-60
2021/12/26 15:02:02;;;;;;;;;;;;;;;3.38;100.00;98058.47;5049631;28;19984;-60
2021/12/26 15:04:29;;;;;;;;;;;;;;;3.13;100.00;98052.97;5051313;28;19912;-61
2021/12/26 15:06:54;;;;;;;;;;;;;;;3.65;100.00;98056.25;5051683;28;19917;-61
2021/12/26 15:09:41;;;;;;;;;;;;;;;3.61;100.00;98047.03;5051622;28;20424;-60
2021/12/26 15:12:17;;;;;;;;;;;;;;;2.96;100.00;98045.63;5051484;28;19913;-60
2021/12/26 15:14:43;;;;;;;;;;;;;;;3.37;100.00;98041.50;5031858;28;20090;-63
2021/12/26 15:17:15;;;;;;;;;;;;;;;3.08;100.00;98039.47;5050668;28;20000;-63
2021/12/26 15:19:40;;;;;;;;;;;;;;;2.82;100.00;98040.75;5050443;28;19917;-63
2021/12/26 15:22:06;;;;;;;;;;;;;;;2.42;100.00;98043.94;5046972;28;19932;-63
2021/12/26 15:24:32;;;;;;;;;;;;;;;2.75;100.00;98036.66;5049875;28;20285;-63
2021/12/26 15:26:58;;;;;;;;;;;;;;;3.05;100.00;98042.91;5033462;28;19924;-63
2021/12/26 15:29:27;;;;;;;;;;;;;;;3.05;100.00;98044.63;5050925;28;19912;-63
2021/12/26 15:31:52;;;;;;;;;;;;;;;3.46;100.00;98041.34;5050452;28;19920;-63
2021/12/26 15:34:18;;;;;;;;;;;;;;;3.31;100.00;98034.00;5051560;28;19962;-63
2021/12/26 15:36:44;;;;;;;;;;;;;;;2.81;100.00;98025.56;5049217;28;20007;-65
2021/12/26 15:39:14;;;;;;;;;;;;;;;2.76;100.00;98028.16;5048439;28;20472;-64
2021/12/26 15:41:44;;;;;;;;;;;;;;;3.15;100.00;98030.91;5049619;28;19978;-64
2021/12/26 15:44:09;;;;;;;;;;;;;;;2.63;100.00;98036.84;5050695;28;20352;-64
2021/12/26 15:46:36;;;;;;;;;;;;;;;2.61;100.00;98038.56;5051193;28;19971;-64
2021/12/26 15:49:02;;;;;;;;;;;;;;;3.31;100.00;98039.09;5050288;28;19917;-64
2021/12/26 15:51:28;;;;;;;;;;;;;;;2.79;100.00;98027.28;5050716;28;20473;-66
2021/12/26 15:53:54;;;;;;;;;;;;;;;2.85;100.00;98037.31;5049690;28;20015;-66
2021/12/26 15:56:20;;;;;;;;;;;;;;;3.63;100.00;98038.47;5047216;28;20270;-64
2021/12/26 15:58:46;;;;;;;;;;;;;;;3.55;100.00;98030.13;5050312;28;19967;-64
2021/12/26 16:01:14;;;;;;;;;;;;;;;3.43;100.00;98032.94;5050205;28;20275;-64
2021/12/26 16:03:39;;;;;;;;;;;;;;;3.26;100.00;98031.53;5050653;28;19920;-64
2021/12/26 16:06:05;;;;;;;;;;;;;;;3.63;100.00;98023.19;5049871;28;19917;-61
2021/12/26 16:08:30;;;;;;;;;;;;;;;3.68;100.00;98018.84;5050001;28;19913;-61
2021/12/26 16:10:56;;;;;;;;;;;;;;;3.53;100.00;98016.59;5050429;28;19920;-60
2021/12/26 16:13:21;;;;;;;;;;;;;;;4.14;100.00;98005.13;5050528;28;19924;-61
2021/12/26 16:15:47;;;;;;;;;;;;;;;3.90;100.00;98003.13;5050580;28;20016;-60
2021/12/26 16:18:13;;;;;;;;;;;;;;;3.42;100.00;98003.25;5050357;28;19916;-61
2021/12/26 16:20:38;;;;;;;;;;;;;;;2.79;100.00;98007.78;5049972;28;19952;-60
2021/12/26 16:23:04;;;;;;;;;;;;;;;3.22;100.00;98017.19;5046087;28;19971;-65
2021/12/26 16:25:29;;;;;;;;;;;;;;;3.09;100.00;98010.66;5044500;28;20840;-64
2021/12/26 16:27:55;;;;;;;;;;;;;;;3.43;100.00;98007.47;5044462;28;19995;-64
2021/12/26 16:30:21;;;;;;;;;;;;;;;3.17;100.00;98013.91;5044296;28;19925;-64
2021/12/26 16:32:47;;;;;;;;;;;;;;;3.92;100.00;98014.09;5045726;28;19912;-64
2021/12/26 16:35:13;;;;;;;;;;;;;;;4.04;100.00;98008.78;5026783;28;20675;-63
2021/12/26 16:37:40;;;;;;;;;;;;;;;3.30;100.00;97999.22;5045348;28;19946;-64
2021/12/26 16:40:07;;;;;;;;;;;;;;;3.70;100.00;98009.47;5044951;28;20000;-63
2021/12/26 16:42:32;;;;;;;;;;;;;;;3.93;100.00;98005.63;5043955;28;20008;-63
2021/12/26 16:44:58;;;;;;;;;;;;;;;4.08;100.00;97995.09;5045405;28;20015;-63
2021/12/26 16:47:23;;;;;;;;;;;;;;;4.23;100.00;97995.63;5044737;28;19977;-63
2021/12/26 16:49:48;;;;;;;;;;;;;;;3.97;100.00;97987.69;5043694;28;20377;-57
2021/12/26 16:52:15;;;;;;;;;;;;;;;3.83;100.00;97983.75;5044676;28;19967;-64
2021/12/26 16:54:41;;;;;;;;;;;;;;;4.11;100.00;97984.84;5026119;28;20309;-63
2021/12/26 16:57:06;;;;;;;;;;;;;;;4.08;100.00;97987.47;5044739;28;19917;-64
2021/12/26 16:59:32;;;;;;;;;;;;;;;4.03;100.00;97991.78;5045166;28;19921;-64
2021/12/26 17:01:57;;;;;;;;;;;;;;;3.88;100.00;97977.69;5045336;28;19917;-64
2021/12/26 17:04:23;;;;;;;;;;;;;;;3.72;100.00;97981.44;5045389;28;19917;-64
2021/12/26 17:06:50;;;;;;;;;;;;;;;3.93;100.00;97980.16;5045287;28;19917;-61
2021/12/26 17:09:15;;;;;;;;;;;;;;;3.49;100.00;97979.34;5012271;28;19929;-65
2021/12/26 17:11:44;;;;;;;;;;;;;;;3.48;100.00;97988.69;5044756;28;19928;-63
2021/12/26 17:14:10;;;;;;;;;;;;;;;4.11;100.00;97984.84;5044217;28;20405;-64
2021/12/26 17:16:35;;;;;;;;;;;;;;;3.89;100.00;97983.63;5028341;28;19960;-64
2021/12/26 17:19:01;;;;;;;;;;;;;;;3.53;100.00;97984.34;5045227;28;19920;-64
2021/12/26 17:21:26;;;;;;;;;;;;;;;3.99;100.00;97990.19;5048200;28;19917;-64
2021/12/26 17:23:52;;;;;;;;;;;;;;;3.65;100.00;97984.97;5046074;28;19929;-64
2021/12/26 17:26:17;;;;;;;;;;;;;;;3.61;100.00;97979.13;5046993;28;19925;-64
2021/12/26 17:28:43;;;;;;;;;;;;;;;3.67;100.00;97978.13;5046782;28;19928;-63
2021/12/26 17:31:08;;;;;;;;;;;;;;;3.41;100.00;97981.22;5046790;28;20023;-64
2021/12/26 17:33:34;;;;;;;;;;;;;;;3.53;100.00;97988.59;5043837;28;19970;-63
2021/12/26 17:36:03;;;;;;;;;;;;;;;3.45;100.00;97993.84;5046161;28;19970;-63
2021/12/26 17:38:29;;;;;;;;;;;;;;;3.18;100.00;97994.38;5046046;28;19932;-64
2021/12/26 17:40:55;;;;;;;;;;;;;;;2.70;100.00;97993.50;5045580;28;19921;-64
2021/12/26 17:43:21;;;;;;;;;;;;;;;3.20;100.00;97998.56;5027677;28;20690;-63
2021/12/26 17:45:47;;;;;;;;;;;;;;;2.84;100.00;97995.81;5046895;28;19924;-64
2021/12/26 17:48:13;;;;;;;;;;;;;;;2.84;100.00;97995.81;5046526;28;19927;-64
2021/12/26 17:50:38;;;;;;;;;;;;;;;3.08;100.00;98006.41;5045932;28;19925;-64
2021/12/26 17:53:03;;;;;;;;;;;;;;;3.59;100.00;98000.38;5046753;28;19929;-64
2021/12/26 17:55:29;;;;;;;;;;;;;;;3.46;100.00;97992.13;5046796;28;19921;-64
2021/12/26 17:57:55;;;;;;;;;;;;;;;3.50;100.00;97988.66;5046172;28;19923;-64
2021/12/26 18:00:20;;;;;;;;;;;;;;;3.52;100.00;97986.94;5046596;28;19920;-64
2021/12/26 18:02:46;;;;;;;;;;;;;;;3.67;100.00;97978.13;5028034;28;19930;-64
2021/12/26 18:05:12;;;;;;;;;;;;;;;3.48;100.00;97985.31;5044080;28;19924;-63
2021/12/26 18:07:37;;;;;;;;;;;;;;;3.72;100.00;97981.44;5043056;28;20388;-63
2021/12/26 18:10:05;;;;;;;;;;;;;;;3.65;100.00;97980.72;5043929;28;19959;-63
2021/12/26 18:12:31;;;;;;;;;;;;;;;3.43;100.00;97979.47;5046306;28;20393;-63
2021/12/26 18:14:56;;;;;;;;;;;;;;;3.67;100.00;97984.09;5046191;28;19947;-63
2021/12/26 18:17:22;;;;;;;;;;;;;;;3.47;100.00;97981.09;5027421;28;19925;-63
2021/12/26 18:19:47;;;;;;;;;;;;;;;3.28;100.00;97981.44;5046484;28;19921;-63
2021/12/26 18:22:12;;;;;;;;;;;;;;;3.64;100.00;97983.31;5044739;28;19913;-63
2021/12/26 18:24:38;;;;;;;;;;;;;;;3.56;100.00;97974.13;5046194;28;19924;-63
2021/12/26 18:27:04;;;;;;;;;;;;;;;3.78;100.00;97974.50;5045428;28;20358;-63
2021/12/26 18:29:29;;;;;;;;;;;;;;;3.60;100.00;97974.03;5026773;28;19921;-63
2021/12/26 18:31:57;;;;;;;;;;;;;;;3.74;100.00;97974.59;5044705;28;19932;-63
2021/12/26 18:34:24;;;;;;;;;;;;;;;3.54;100.00;97975.84;5044397;28;19924;-63
2021/12/26 18:36:50;;;;;;;;;;;;;;;3.69;100.00;97971.31;5045767;28;19913;-63
2021/12/26 18:39:15;;;;;;;;;;;;;;;3.85;100.00;97977.75;5044917;28;20012;-63
2021/12/26 18:41:41;;;;;;;;;;;;;;;3.89;100.00;97968.34;5045333;28;19924;-63
2021/12/26 18:44:06;;;;;;;;;;;;;;;3.50;100.00;97960.66;5046024;28;19921;-63
2021/12/26 18:46:32;;;;;;;;;;;;;;;3.68;100.00;97952.66;5045653;28;19925;-63
2021/12/26 18:48:58;;;;;;;;;;;;;;;3.51;100.00;97957.25;5045463;28;19927;-63
2021/12/26 18:51:26;;;;;;;;;;;;;;;3.49;100.00;97956.44;5044669;28;21788;-64
2021/12/26 18:53:53;;;;;;;;;;;;;;;3.41;100.00;97959.16;5044256;28;19921;-63
2021/12/26 18:56:18;;;;;;;;;;;;;;;3.55;100.00;97963.97;5044691;28;19917;-63
2021/12/26 18:58:44;;;;;;;;;;;;;;;3.01;100.00;97957.38;5044346;28;20290;-63
2021/12/26 19:01:09;;;;;;;;;;;;;;;3.51;100.00;97957.25;5044947;28;20023;-63
2021/12/26 19:03:34;;;;;;;;;;;;;;;3.97;100.00;97961.38;5044509;28;20385;-63
2021/12/26 19:06:00;;;;;;;;;;;;;;;3.14;100.00;97957.97;5044968;28;19917;-63
2021/12/26 19:08:26;;;;;;;;;;;;;;;2.75;100.00;97962.91;5044993;28;19917;-63
2021/12/26 19:10:52;;;;;;;;;;;;;;;3.12;100.00;97967.34;5044894;28;20436;-63
2021/12/26 19:13:21;;;;;;;;;;;;;;;3.28;100.00;97966.16;5045267;28;19932;-63
2021/12/26 19:15:48;;;;;;;;;;;;;;;3.38;100.00;97968.56;5044566;28;20277;-63
2021/12/26 19:18:14;;;;;;;;;;;;;;;3.43;100.00;97969.31;5045141;28;19983;-63
2021/12/26 19:20:39;;;;;;;;;;;;;;;3.72;100.00;97963.63;5044410;28;20488;-63
2021/12/26 19:23:05;;;;;;;;;;;;;;;3.77;100.00;97959.25;5043114;28;19927;-63
2021/12/26 19:25:30;;;;;;;;;;;;;;;3.81;100.00;97954.91;5042608;28;19928;-63
2021/12/26 19:27:57;;;;;;;;;;;;;;;4.12;100.00;97950.81;5044755;28;19924;-63
2021/12/26 19:30:25;;;;;;;;;;;;;;;3.79;100.00;97944.78;5042774;28;19967;-63
2021/12/26 19:32:51;;;;;;;;;;;;;;;3.66;100.00;97939.13;5043054;28;19946;-63
2021/12/26 19:35:16;;;;;;;;;;;;;;;3.66;100.00;97944.22;5043408;28;20313;-63
2021/12/26 19:37:42;;;;;;;;;;;;;;;2.72;100.00;97955.34;5043490;28;19975;-63
2021/12/26 19:40:08;;;;;;;;;;;;;;;3.24;100.00;97961.16;5044974;28;20275;-63
2021/12/26 19:42:35;;;;;;;;;;;;;;;2.53;100.00;97957.34;5043726;28;19960;-63
2021/12/26 19:45:01;;;;;;;;;;;;;;;3.06;100.00;97972.56;5044071;28;19992;-63
2021/12/26 19:47:26;;;;;;;;;;;;;;;3.35;100.00;97972.84;5044901;28;20418;-63
2021/12/26 19:49:52;;;;;;;;;;;;;;;3.40;100.00;97974.44;5043577;28;20036;-63
2021/12/26 19:52:17;;;;;;;;;;;;;;;2.97;100.00;97975.28;5044634;28;19921;-64
2021/12/26 19:54:50;;;;;;;;;;;;;;;3.33;100.00;97978.81;5049578;28;19921;-64
2021/12/26 19:57:15;;;;;;;;;;;;;;;2.77;100.00;97976.44;5051359;28;19917;-64
2021/12/26 19:59:41;;;;;;;;;;;;;;;3.30;100.00;97984.78;5044044;28;20298;-64
2021/12/26 20:02:07;;;;;;;;;;;;;;;3.55;100.00;97984.31;5047604;28;19916;-64
2021/12/26 20:04:32;;;;;;;;;;;;;;;3.29;100.00;97975.50;5044250;28;19937;-63
2021/12/26 20:06:57;;;;;;;;;;;;;;;3.27;100.00;97979.78;5042351;28;19935;-63
2021/12/26 20:09:23;;;;;;;;;;;;;;;3.35;100.00;97972.84;5042293;28;20378;-63
2021/12/26 20:11:48;;;;;;;;;;;;;;;3.06;100.00;97977.66;5044222;28;20282;-63
2021/12/26 20:14:14;;;;;;;;;;;;;;;3.30;100.00;97989.88;5044629;28;19983;-63
2021/12/26 20:16:40;;;;;;;;;;;;;;;3.32;100.00;97985.59;5043566;28;19920;-63
2021/12/26 20:19:16;;;;;;;;;;;;;;;2.69;100.00;97975.72;5044989;28;19935;-63
2021/12/26 20:21:45;;;;;;;;;;;;;;;3.60;100.00;97979.97;5027903;28;19921;-63
2021/12/26 20:24:11;;;;;;;;;;;;;;;3.70;100.00;97981.47;5045021;28;19952;-63
2021/12/26 20:26:36;;;;;;;;;;;;;;;3.21;100.00;97977.34;5044664;28;19921;-63
2021/12/26 20:29:01;;;;;;;;;;;;;;;2.73;100.00;97972.28;5045774;28;19935;-63
2021/12/26 20:31:27;;;;;;;;;;;;;;;2.87;100.00;97979.66;5046515;28;20374;-63
2021/12/26 20:33:53;;;;;;;;;;;;;;;3.23;100.00;97985.78;5049391;28;20386;-64
2021/12/26 20:36:18;;;;;;;;;;;;;;;3.71;100.00;97974.66;5045317;28;19916;-64
2021/12/26 20:38:43;;;;;;;;;;;;;;;3.90;100.00;97972.56;5034914;28;19921;-63
2021/12/26 20:41:09;;;;;;;;;;;;;;;3.74;100.00;97970.34;5049077;28;19999;-64
2021/12/26 20:43:35;;;;;;;;;;;;;;;3.90;100.00;97967.47;5051237;28;19921;-64
2021/12/26 20:46:00;;;;;;;;;;;;;;;4.15;100.00;97966.06;5050889;28;19912;-64
2021/12/26 20:48:26;;;;;;;;;;;;;;;3.72;100.00;97951.72;5049802;28;19964;-64
2021/12/26 20:50:52;;;;;;;;;;;;;;;2.58;100.00;97957.28;5050567;28;19921;-63
2021/12/26 20:53:18;;;;;;;;;;;;;;;2.39;100.00;97965.19;5050113;28;20027;-63
2021/12/26 20:55:43;;;;;;;;;;;;;;;2.74;100.00;97968.88;5053979;28;20011;-64
2021/12/26 20:58:09;;;;;;;;;;;;;;;2.85;100.00;97971.22;5053249;28;19916;-64
2021/12/26 21:00:35;;;;;;;;;;;;;;;2.68;100.00;97977.44;5052292;28;19939;-64
2021/12/26 21:03:01;;;;;;;;;;;;;;;2.96;100.00;97978.66;5053699;28;20317;-64
2021/12/26 21:05:26;;;;;;;;;;;;;;;3.57;100.00;97987.69;5054379;28;20285;-64
2021/12/26 21:07:52;;;;;;;;;;;;;;;3.24;100.00;97982.38;5054079;28;19917;-64
2021/12/26 21:10:18;;;;;;;;;;;;;;;3.08;100.00;97986.06;5052586;28;19913;-64
2021/12/26 21:12:44;;;;;;;;;;;;;;;3.23;100.00;97988.31;5053895;28;19950;-64
2021/12/26 21:15:11;;;;;;;;;;;;;;;3.60;100.00;97985.06;5053920;28;19990;-64
2021/12/26 21:17:37;;;;;;;;;;;;;;;3.85;100.00;97992.19;5053398;28;19920;-64
2021/12/26 21:20:03;;;;;;;;;;;;;;;3.87;100.00;97980.28;5053711;28;19913;-64
2021/12/26 21:22:30;;;;;;;;;;;;;;;4.07;100.00;97990.84;5053963;28;19920;-64
2021/12/26 21:24:56;;;;;;;;;;;;;;;3.72;100.00;97978.91;5053120;28;19928;-64
2021/12/26 21:27:22;;;;;;;;;;;;;;;4.14;100.00;97974.56;5052652;28;19917;-64
2021/12/26 21:29:47;;;;;;;;;;;;;;;4.34;100.00;97975.81;5053304;28;19935;-65
2021/12/26 21:32:13;;;;;;;;;;;;;;;4.56;100.00;97973.59;5053307;28;19996;-65
2021/12/26 21:34:39;;;;;;;;;;;;;;;4.67;100.00;97953.75;5052795;28;19935;-65
2021/12/26 21:37:04;;;;;;;;;;;;;;;4.25;100.00;97948.00;5052761;28;19912;-65
2021/12/26 21:39:30;;;;;;;;;;;;;;;4.80;100.00;97950.03;5035019;28;19913;-66
2021/12/26 21:42:04;;;;;;;;;;;;;;;5.01;100.00;97940.13;5053609;28;19932;-66
2021/12/26 21:44:30;;;;;;;;;;;;;;;4.76;100.00;97932.28;5051573;28;19939;-65
2021/12/26 21:46:55;;;;;;;;;;;;;;;4.39;100.00;97923.03;5053678;28;19962;-65
2021/12/26 21:49:21;;;;;;;;;;;;;;;4.59;100.00;97919.97;5054905;28;19925;-66
2021/12/26 21:51:47;;;;;;;;;;;;;;;4.72;100.00;97920.50;5054214;28;19912;-66
2021/12/26 21:54:12;;;;;;;;;;;;;;;4.67;100.00;97914.66;5057525;28;20028;-66
2021/12/26 21:56:40;;;;;;;;;;;;;;;4.98;100.00;97912.16;5053504;28;19912;-65
2021/12/26 21:59:06;;;;;;;;;;;;;;;4.56;100.00;97899.63;5052358;28;20277;-65
2021/12/26 22:01:31;;;;;;;;;;;;;;;4.08;100.00;97903.38;5049617;28;19965;-66
2021/12/26 22:03:57;;;;;;;;;;;;;;;3.93;100.00;97908.81;5049345;28;20302;-65
2021/12/26 22:06:27;;;;;;;;;;;;;;;4.93;100.00;97914.84;5047880;28;19913;-65
2021/12/26 22:08:53;;;;;;;;;;;;;;;5.01;100.00;97912.91;5049908;28;19917;-65
2021/12/26 22:11:18;;;;;;;;;;;;;;;4.77;100.00;97908.47;5049797;28;19913;-64
2021/12/26 22:13:44;;;;;;;;;;;;;;;4.24;100.00;97892.81;5050269;28;19917;-64
2021/12/26 22:16:12;;;;;;;;;;;;;;;4.48;100.00;97907.50;5030074;28;19975;-64
2021/12/26 22:18:38;;;;;;;;;;;;;;;4.73;100.00;97909.44;5030906;28;19917;-65
2021/12/26 22:21:03;;;;;;;;;;;;;;;4.68;100.00;97906.16;5049612;28;20395;-64
2021/12/26 22:23:29;;;;;;;;;;;;;;;4.60;100.00;97896.16;5049679;28;20262;-65
2021/12/26 22:25:55;;;;;;;;;;;;;;;4.39;100.00;97894.97;5049469;28;19913;-64